Andover, Kansas
Current Conditions -  °F | °C
As of 3:04 PM on Saturday 22 Nov 2014 (Local Time) from KAAO Reporting Station
Scattered Clouds Scattered Clouds  
Wind Chill: 61°   Ceiling: Unl
Heat Index: 61°   Visibility: 10mi
Dew Point: 53°   Wind: 17mph
Humidity: 75%   Direction: 180°S
Pressure: 29.75"   Gusts: NA
Location:  37.71°N, 97.14°W
Report Text: KAAO 222104Z AUTO 18015KT 10SM SCT019 16/12 A2975 RMK AO2 T01610117
Loading
Personal Weather Stations






























Interactive Weather Map New forecast layout! Learn more

10-Day Weather Forecast

Advertisements
Track Severe Weather on mobile